sensor_id;sensor_type;location;lat;lon;timestamp;P1;durP1;ratioP1;P2;durP2;ratioP2
1887;SDS011;944;51.574;6.980;2023-05-10T00:01:11;15.70;;;7.83;;
1887;SDS011;944;51.574;6.980;2023-05-10T00:03:38;16.07;;;8.20;;
1887;SDS011;944;51.574;6.980;2023-05-10T00:06:05;17.60;;;9.40;;
1887;SDS011;944;51.574;6.980;2023-05-10T00:08:32;20.30;;;9.23;;
1887;SDS011;944;51.574;6.980;2023-05-10T00:10:59;23.30;;;10.90;;
1887;SDS011;944;51.574;6.980;2023-05-10T00:13:26;39.47;;;13.47;;
1887;SDS011;944;51.574;6.980;2023-05-10T00:15:53;26.20;;;13.33;;
1887;SDS011;944;51.574;6.980;2023-05-10T00:18:22;33.33;;;13.27;;
1887;SDS011;944;51.574;6.980;2023-05-10T00:20:49;33.97;;;13.87;;
1887;SDS011;944;51.574;6.980;2023-05-10T00:23:16;35.10;;;14.53;;
1887;SDS011;944;51.574;6.980;2023-05-10T00:26:13;36.67;;;15.63;;
1887;SDS011;944;51.574;6.980;2023-05-10T00:28:41;32.57;;;15.07;;
1887;SDS011;944;51.574;6.980;2023-05-10T00:31:08;29.60;;;14.23;;
1887;SDS011;944;51.574;6.980;2023-05-10T00:33:37;33.73;;;14.77;;
1887;SDS011;944;51.574;6.980;2023-05-10T00:36:05;39.00;;;16.20;;
1887;SDS011;944;51.574;6.980;2023-05-10T00:38:33;33.53;;;15.10;;
1887;SDS011;944;51.574;6.980;2023-05-10T00:41:00;33.47;;;15.40;;
1887;SDS011;944;51.574;6.980;2023-05-10T00:43:27;31.10;;;14.40;;
1887;SDS011;944;51.574;6.980;2023-05-10T00:45:54;34.10;;;15.60;;
1887;SDS011;944;51.574;6.980;2023-05-10T00:48:22;26.70;;;14.10;;
1887;SDS011;944;51.574;6.980;2023-05-10T00:50:50;27.67;;;13.77;;
1887;SDS011;944;51.574;6.980;2023-05-10T00:53:17;20.67;;;11.53;;
1887;SDS011;944;51.574;6.980;2023-05-10T00:55:45;20.60;;;11.43;;
1887;SDS011;944;51.574;6.980;2023-05-10T00:58:12;24.00;;;12.27;;
1887;SDS011;944;51.574;6.980;2023-05-10T01:00:40;22.70;;;11.50;;
1887;SDS011;944;51.574;6.980;2023-05-10T01:03:09;20.00;;;10.97;;
1887;SDS011;944;51.574;6.980;2023-05-10T01:05:39;23.73;;;11.67;;
1887;SDS011;944;51.574;6.980;2023-05-10T01:08:07;22.37;;;10.40;;
1887;SDS011;944;51.574;6.980;2023-05-10T01:10:35;18.93;;;10.77;;
1887;SDS011;944;51.574;6.980;2023-05-10T01:13:02;23.63;;;11.00;;
1887;SDS011;944;51.574;6.980;2023-05-10T01:15:29;22.07;;;11.03;;
1887;SDS011;944;51.574;6.980;2023-05-10T01:17:57;18.83;;;11.20;;
1887;SDS011;944;51.574;6.980;2023-05-10T01:20:25;21.93;;;11.27;;
1887;SDS011;944;51.574;6.980;2023-05-10T01:23:10;21.03;;;11.30;;
1887;SDS011;944;51.574;6.980;2023-05-10T01:26:07;22.97;;;12.00;;
1887;SDS011;944;51.574;6.980;2023-05-10T01:32:00;35.20;;;14.03;;
1887;SDS011;944;51.574;6.980;2023-05-10T01:34:44;35.57;;;15.13;;
1887;SDS011;944;51.574;6.980;2023-05-10T01:37:21;31.20;;;14.93;;
1887;SDS011;944;51.574;6.980;2023-05-10T01:39:59;30.93;;;14.43;;
1887;SDS011;944;51.574;6.980;2023-05-10T01:42:36;37.93;;;16.00;;
1887;SDS011;944;51.574;6.980;2023-05-10T01:45:14;35.37;;;15.30;;
1887;SDS011;944;51.574;6.980;2023-05-10T01:47:54;35.50;;;15.73;;
1887;SDS011;944;51.574;6.980;2023-05-10T01:50:36;38.40;;;16.17;;
1887;SDS011;944;51.574;6.980;2023-05-10T01:53:10;38.23;;;15.97;;
1887;SDS011;944;51.574;6.980;2023-05-10T01:55:40;33.70;;;16.27;;
1887;SDS011;944;51.574;6.980;2023-05-10T01:58:13;41.80;;;16.87;;
1887;SDS011;944;51.574;6.980;2023-05-10T02:00:44;45.53;;;16.20;;
1887;SDS011;944;51.574;6.980;2023-05-10T02:03:15;42.00;;;17.27;;
1887;SDS011;944;51.574;6.980;2023-05-10T02:05:45;50.23;;;19.20;;
1887;SDS011;944;51.574;6.980;2023-05-10T02:08:14;45.63;;;18.17;;
1887;SDS011;944;51.574;6.980;2023-05-10T02:10:44;45.43;;;17.23;;
1887;SDS011;944;51.574;6.980;2023-05-10T02:13:12;54.70;;;18.77;;
1887;SDS011;944;51.574;6.980;2023-05-10T02:15:42;56.47;;;17.73;;
1887;SDS011;944;51.574;6.980;2023-05-10T02:18:24;53.27;;;18.20;;
1887;SDS011;944;51.574;6.980;2023-05-10T02:20:56;57.93;;;18.63;;
1887;SDS011;944;51.574;6.980;2023-05-10T02:23:33;46.33;;;18.20;;
1887;SDS011;944;51.574;6.980;2023-05-10T02:26:09;46.60;;;17.77;;
1887;SDS011;944;51.574;6.980;2023-05-10T02:28:58;42.13;;;18.17;;
1887;SDS011;944;51.574;6.980;2023-05-10T02:31:46;54.77;;;19.77;;
1887;SDS011;944;51.574;6.980;2023-05-10T02:34:33;53.93;;;19.00;;
1887;SDS011;944;51.574;6.980;2023-05-10T02:37:22;50.43;;;19.63;;
1887;SDS011;944;51.574;6.980;2023-05-10T02:40:04;51.10;;;20.00;;
1887;SDS011;944;51.574;6.980;2023-05-10T02:42:42;65.67;;;22.43;;
1887;SDS011;944;51.574;6.980;2023-05-10T02:45:13;58.10;;;23.10;;
1887;SDS011;944;51.574;6.980;2023-05-10T02:48:06;59.07;;;22.43;;
1887;SDS011;944;51.574;6.980;2023-05-10T02:50:39;66.27;;;21.73;;
1887;SDS011;944;51.574;6.980;2023-05-10T02:53:15;62.90;;;21.60;;
1887;SDS011;944;51.574;6.980;2023-05-10T02:55:45;55.50;;;21.73;;
1887;SDS011;944;51.574;6.980;2023-05-10T02:58:17;70.30;;;21.67;;
1887;SDS011;944;51.574;6.980;2023-05-10T03:00:46;58.03;;;20.40;;
1887;SDS011;944;51.574;6.980;2023-05-10T03:03:13;61.80;;;22.20;;
1887;SDS011;944;51.574;6.980;2023-05-10T03:05:41;74.17;;;23.90;;
1887;SDS011;944;51.574;6.980;2023-05-10T03:08:08;56.43;;;20.50;;
1887;SDS011;944;51.574;6.980;2023-05-10T03:10:38;73.53;;;22.60;;
1887;SDS011;944;51.574;6.980;2023-05-10T03:13:16;71.57;;;22.20;;
1887;SDS011;944;51.574;6.980;2023-05-10T03:15:56;66.77;;;23.93;;
1887;SDS011;944;51.574;6.980;2023-05-10T03:18:33;68.10;;;22.67;;
1887;SDS011;944;51.574;6.980;2023-05-10T03:21:13;80.67;;;24.80;;
1887;SDS011;944;51.574;6.980;2023-05-10T03:23:45;84.70;;;24.87;;
1887;SDS011;944;51.574;6.980;2023-05-10T03:26:17;73.03;;;25.17;;
1887;SDS011;944;51.574;6.980;2023-05-10T03:28:51;78.33;;;25.67;;
1887;SDS011;944;51.574;6.980;2023-05-10T03:31:19;89.10;;;27.50;;
1887;SDS011;944;51.574;6.980;2023-05-10T03:33:47;88.17;;;27.07;;
1887;SDS011;944;51.574;6.980;2023-05-10T03:36:17;77.57;;;24.73;;
1887;SDS011;944;51.574;6.980;2023-05-10T03:38:47;91.03;;;27.73;;
1887;SDS011;944;51.574;6.980;2023-05-10T03:41:18;85.50;;;26.40;;
1887;SDS011;944;51.574;6.980;2023-05-10T03:43:45;85.23;;;27.77;;
1887;SDS011;944;51.574;6.980;2023-05-10T03:46:12;91.13;;;28.17;;
1887;SDS011;944;51.574;6.980;2023-05-10T03:48:39;97.27;;;28.60;;
1887;SDS011;944;51.574;6.980;2023-05-10T03:51:06;105.33;;;32.50;;
1887;SDS011;944;51.574;6.980;2023-05-10T03:53:35;101.47;;;30.30;;
1887;SDS011;944;51.574;6.980;2023-05-10T03:56:02;110.00;;;32.97;;
1887;SDS011;944;51.574;6.980;2023-05-10T03:58:29;110.77;;;34.10;;
1887;SDS011;944;51.574;6.980;2023-05-10T04:00:57;109.17;;;33.53;;
1887;SDS011;944;51.574;6.980;2023-05-10T04:03:24;122.93;;;35.57;;
1887;SDS011;944;51.574;6.980;2023-05-10T04:05:58;119.33;;;36.63;;
1887;SDS011;944;51.574;6.980;2023-05-10T04:08:26;123.57;;;36.70;;
1887;SDS011;944;51.574;6.980;2023-05-10T04:10:54;122.70;;;38.13;;
1887;SDS011;944;51.574;6.980;2023-05-10T04:13:33;120.60;;;37.50;;
1887;SDS011;944;51.574;6.980;2023-05-10T04:16:01;139.17;;;40.07;;
1887;SDS011;944;51.574;6.980;2023-05-10T04:18:28;148.60;;;39.80;;
1887;SDS011;944;51.574;6.980;2023-05-10T04:20:55;144.10;;;40.30;;
1887;SDS011;944;51.574;6.980;2023-05-10T04:23:22;135.93;;;39.50;;
1887;SDS011;944;51.574;6.980;2023-05-10T04:25:50;163.10;;;41.20;;
1887;SDS011;944;51.574;6.980;2023-05-10T04:28:18;160.40;;;41.87;;
1887;SDS011;944;51.574;6.980;2023-05-10T04:30:46;158.03;;;43.70;;
1887;SDS011;944;51.574;6.980;2023-05-10T04:33:13;142.20;;;40.17;;
1887;SDS011;944;51.574;6.980;2023-05-10T04:35:41;148.33;;;41.50;;
1887;SDS011;944;51.574;6.980;2023-05-10T04:38:10;139.97;;;39.97;;
1887;SDS011;944;51.574;6.980;2023-05-10T04:40:38;153.50;;;41.87;;
1887;SDS011;944;51.574;6.980;2023-05-10T04:43:10;140.80;;;39.97;;
1887;SDS011;944;51.574;6.980;2023-05-10T04:45:43;126.13;;;38.10;;
1887;SDS011;944;51.574;6.980;2023-05-10T04:48:15;138.20;;;39.20;;
1887;SDS011;944;51.574;6.980;2023-05-10T04:50:47;137.83;;;41.07;;
1887;SDS011;944;51.574;6.980;2023-05-10T04:53:23;146.37;;;41.20;;
1887;SDS011;944;51.574;6.980;2023-05-10T04:55:50;135.47;;;39.10;;
1887;SDS011;944;51.574;6.980;2023-05-10T04:58:17;132.43;;;39.00;;
1887;SDS011;944;51.574;6.980;2023-05-10T05:00:46;153.50;;;40.53;;
1887;SDS011;944;51.574;6.980;2023-05-10T05:03:13;124.57;;;37.73;;
1887;SDS011;944;51.574;6.980;2023-05-10T05:05:40;125.23;;;41.50;;
1887;SDS011;944;51.574;6.980;2023-05-10T05:08:07;123.10;;;37.90;;
1887;SDS011;944;51.574;6.980;2023-05-10T05:10:34;134.97;;;40.33;;
1887;SDS011;944;51.574;6.980;2023-05-10T05:13:02;124.93;;;40.87;;
1887;SDS011;944;51.574;6.980;2023-05-10T05:19:11;143.30;;;40.80;;
1887;SDS011;944;51.574;6.980;2023-05-10T05:32:45;154.27;;;44.17;;
1887;SDS011;944;51.574;6.980;2023-05-10T05:35:30;136.33;;;41.23;;
1887;SDS011;944;51.574;6.980;2023-05-10T05:38:19;142.47;;;43.73;;
1887;SDS011;944;51.574;6.980;2023-05-10T05:41:11;146.07;;;42.77;;
1887;SDS011;944;51.574;6.980;2023-05-10T05:48:30;138.17;;;43.23;;
1887;SDS011;944;51.574;6.980;2023-05-10T06:54:28;96.63;;;40.43;;
1887;SDS011;944;51.574;6.980;2023-05-10T09:54:35;41.03;;;23.33;;
1887;SDS011;944;51.574;6.980;2023-05-10T12:23:01;25.33;;;18.07;;
1887;SDS011;944;51.574;6.980;2023-05-10T12:25:50;27.90;;;16.63;;
1887;SDS011;944;51.574;6.980;2023-05-10T12:28:19;25.20;;;17.03;;
1887;SDS011;944;51.574;6.980;2023-05-10T12:31:24;26.20;;;14.43;;
1887;SDS011;944;51.574;6.980;2023-05-10T12:33:49;27.80;;;15.43;;
1887;SDS011;944;51.574;6.980;2023-05-10T12:36:23;18.87;;;12.73;;
1887;SDS011;944;51.574;6.980;2023-05-10T12:46:15;15.30;;;10.87;;
1887;SDS011;944;51.574;6.980;2023-05-10T12:48:44;19.87;;;12.07;;
1887;SDS011;944;51.574;6.980;2023-05-10T12:54:56;17.27;;;10.33;;
1887;SDS011;944;51.574;6.980;2023-05-10T12:57:24;13.57;;;9.17;;
1887;SDS011;944;51.574;6.980;2023-05-10T12:59:51;20.43;;;10.27;;
1887;SDS011;944;51.574;6.980;2023-05-10T13:02:19;11.10;;;8.20;;
1887;SDS011;944;51.574;6.980;2023-05-10T13:04:46;16.87;;;8.27;;
1887;SDS011;944;51.574;6.980;2023-05-10T13:07:13;14.63;;;8.83;;
1887;SDS011;944;51.574;6.980;2023-05-10T13:09:40;10.20;;;7.20;;
1887;SDS011;944;51.574;6.980;2023-05-10T13:12:08;11.90;;;7.10;;
1887;SDS011;944;51.574;6.980;2023-05-10T13:14:36;9.33;;;6.97;;
1887;SDS011;944;51.574;6.980;2023-05-10T13:17:03;8.33;;;5.60;;
1887;SDS011;944;51.574;6.980;2023-05-10T13:27:06;10.07;;;5.70;;
1887;SDS011;944;51.574;6.980;2023-05-10T13:30:48;9.97;;;6.30;;
1887;SDS011;944;51.574;6.980;2023-05-10T13:33:30;9.90;;;5.80;;
1887;SDS011;944;51.574;6.980;2023-05-10T13:36:58;9.20;;;6.63;;
1887;SDS011;944;51.574;6.980;2023-05-10T13:39:11;10.10;;;6.90;;
1887;SDS011;944;51.574;6.980;2023-05-10T14:37:40;15.90;;;8.97;;
1887;SDS011;944;51.574;6.980;2023-05-10T14:41:50;11.90;;;8.97;;
1887;SDS011;944;51.574;6.980;2023-05-10T14:44:41;14.17;;;8.90;;
1887;SDS011;944;51.574;6.980;2023-05-10T14:50:08;13.10;;;9.50;;
1887;SDS011;944;51.574;6.980;2023-05-10T14:52:35;15.03;;;9.20;;
1887;SDS011;944;51.574;6.980;2023-05-10T14:55:04;9.90;;;6.97;;
1887;SDS011;944;51.574;6.980;2023-05-10T14:57:35;7.10;;;5.53;;
1887;SDS011;944;51.574;6.980;2023-05-10T15:00:06;12.47;;;7.37;;
1887;SDS011;944;51.574;6.980;2023-05-10T15:02:45;11.00;;;7.10;;
1887;SDS011;944;51.574;6.980;2023-05-10T15:08:55;14.90;;;8.90;;
1887;SDS011;944;51.574;6.980;2023-05-10T15:11:26;11.33;;;8.40;;
1887;SDS011;944;51.574;6.980;2023-05-10T15:14:00;14.73;;;8.73;;
1887;SDS011;944;51.574;6.980;2023-05-10T15:16:42;12.87;;;8.47;;
1887;SDS011;944;51.574;6.980;2023-05-10T15:19:09;18.20;;;8.50;;
1887;SDS011;944;51.574;6.980;2023-05-10T15:21:38;9.03;;;6.67;;
1887;SDS011;944;51.574;6.980;2023-05-10T15:24:07;11.80;;;7.17;;
1887;SDS011;944;51.574;6.980;2023-05-10T15:26:36;14.17;;;7.70;;
1887;SDS011;944;51.574;6.980;2023-05-10T15:29:06;10.73;;;6.73;;
1887;SDS011;944;51.574;6.980;2023-05-10T15:31:35;8.07;;;7.27;;
1887;SDS011;944;51.574;6.980;2023-05-10T15:34:02;12.57;;;7.37;;
1887;SDS011;944;51.574;6.980;2023-05-10T15:36:31;13.20;;;7.67;;
1887;SDS011;944;51.574;6.980;2023-05-10T15:39:04;7.83;;;6.60;;
1887;SDS011;944;51.574;6.980;2023-05-10T15:41:39;11.23;;;8.27;;
1887;SDS011;944;51.574;6.980;2023-05-10T15:44:09;11.57;;;7.70;;
1887;SDS011;944;51.574;6.980;2023-05-10T15:46:44;8.57;;;7.50;;
1887;SDS011;944;51.574;6.980;2023-05-10T15:49:13;15.57;;;8.60;;
1887;SDS011;944;51.574;6.980;2023-05-10T15:51:39;14.23;;;8.60;;
1887;SDS011;944;51.574;6.980;2023-05-10T15:54:06;16.23;;;9.90;;
1887;SDS011;944;51.574;6.980;2023-05-10T15:56:34;18.93;;;9.90;;
1887;SDS011;944;51.574;6.980;2023-05-10T16:02:44;13.93;;;10.57;;
1887;SDS011;944;51.574;6.980;2023-05-10T16:05:13;15.57;;;11.10;;
1887;SDS011;944;51.574;6.980;2023-05-10T16:07:42;15.37;;;11.00;;
1887;SDS011;944;51.574;6.980;2023-05-10T16:10:20;13.30;;;9.43;;
1887;SDS011;944;51.574;6.980;2023-05-10T16:12:49;16.80;;;9.43;;
1887;SDS011;944;51.574;6.980;2023-05-10T16:15:17;18.80;;;10.90;;
1887;SDS011;944;51.574;6.980;2023-05-10T16:17:47;14.27;;;9.50;;
1887;SDS011;944;51.574;6.980;2023-05-10T16:20:16;13.23;;;9.50;;
1887;SDS011;944;51.574;6.980;2023-05-10T16:22:43;14.50;;;10.20;;
1887;SDS011;944;51.574;6.980;2023-05-10T16:25:31;14.67;;;10.53;;
1887;SDS011;944;51.574;6.980;2023-05-10T16:28:09;15.63;;;10.13;;
1887;SDS011;944;51.574;6.980;2023-05-10T16:30:37;16.43;;;10.10;;
1887;SDS011;944;51.574;6.980;2023-05-10T16:33:06;10.83;;;8.40;;
1887;SDS011;944;51.574;6.980;2023-05-10T16:35:33;18.17;;;9.87;;
1887;SDS011;944;51.574;6.980;2023-05-10T16:38:00;12.70;;;9.13;;
1887;SDS011;944;51.574;6.980;2023-05-10T16:40:30;14.83;;;9.83;;
1887;SDS011;944;51.574;6.980;2023-05-10T16:42:58;11.70;;;8.90;;
1887;SDS011;944;51.574;6.980;2023-05-10T16:45:25;17.27;;;10.60;;
1887;SDS011;944;51.574;6.980;2023-05-10T16:47:56;16.80;;;12.00;;
1887;SDS011;944;51.574;6.980;2023-05-10T16:50:29;17.30;;;11.90;;
1887;SDS011;944;51.574;6.980;2023-05-10T16:52:56;16.23;;;12.53;;
1887;SDS011;944;51.574;6.980;2023-05-10T16:55:23;19.77;;;13.30;;
1887;SDS011;944;51.574;6.980;2023-05-10T16:57:50;16.80;;;11.90;;
1887;SDS011;944;51.574;6.980;2023-05-10T17:00:23;15.40;;;11.50;;
1887;SDS011;944;51.574;6.980;2023-05-10T17:02:50;22.03;;;10.20;;
1887;SDS011;944;51.574;6.980;2023-05-10T17:05:18;15.03;;;9.53;;
1887;SDS011;944;51.574;6.980;2023-05-10T17:07:46;15.90;;;11.33;;
1887;SDS011;944;51.574;6.980;2023-05-10T17:10:14;11.47;;;9.37;;
1887;SDS011;944;51.574;6.980;2023-05-10T17:12:41;14.00;;;10.10;;
1887;SDS011;944;51.574;6.980;2023-05-10T17:19:08;16.20;;;10.80;;
1887;SDS011;944;51.574;6.980;2023-05-10T17:21:35;13.17;;;9.50;;
1887;SDS011;944;51.574;6.980;2023-05-10T17:24:04;12.00;;;9.37;;
1887;SDS011;944;51.574;6.980;2023-05-10T17:26:31;13.57;;;9.90;;
1887;SDS011;944;51.574;6.980;2023-05-10T17:28:58;13.03;;;8.90;;
1887;SDS011;944;51.574;6.980;2023-05-10T17:31:25;12.10;;;9.30;;
1887;SDS011;944;51.574;6.980;2023-05-10T17:33:52;13.00;;;9.10;;
1887;SDS011;944;51.574;6.980;2023-05-10T17:36:19;15.97;;;8.40;;
1887;SDS011;944;51.574;6.980;2023-05-10T17:38:46;11.90;;;7.93;;
1887;SDS011;944;51.574;6.980;2023-05-10T17:41:15;9.80;;;8.30;;
1887;SDS011;944;51.574;6.980;2023-05-10T17:43:42;14.30;;;9.10;;
1887;SDS011;944;51.574;6.980;2023-05-10T17:46:09;13.33;;;9.00;;
1887;SDS011;944;51.574;6.980;2023-05-10T17:48:37;16.87;;;10.00;;
1887;SDS011;944;51.574;6.980;2023-05-10T17:51:04;11.53;;;9.20;;
1887;SDS011;944;51.574;6.980;2023-05-10T17:53:31;14.80;;;9.53;;
1887;SDS011;944;51.574;6.980;2023-05-10T17:55:59;19.50;;;9.43;;
1887;SDS011;944;51.574;6.980;2023-05-10T17:58:27;14.63;;;10.00;;
1887;SDS011;944;51.574;6.980;2023-05-10T18:00:54;18.80;;;10.03;;
1887;SDS011;944;51.574;6.980;2023-05-10T18:03:22;12.50;;;8.73;;
1887;SDS011;944;51.574;6.980;2023-05-10T18:05:49;14.67;;;9.50;;
1887;SDS011;944;51.574;6.980;2023-05-10T18:08:16;15.60;;;10.33;;
1887;SDS011;944;51.574;6.980;2023-05-10T18:10:46;15.07;;;9.33;;
1887;SDS011;944;51.574;6.980;2023-05-10T18:13:13;13.47;;;9.13;;
1887;SDS011;944;51.574;6.980;2023-05-10T18:15:42;14.00;;;9.77;;
1887;SDS011;944;51.574;6.980;2023-05-10T18:18:09;13.30;;;9.83;;
1887;SDS011;944;51.574;6.980;2023-05-10T18:20:36;16.37;;;10.37;;
1887;SDS011;944;51.574;6.980;2023-05-10T18:23:03;13.53;;;10.10;;
1887;SDS011;944;51.574;6.980;2023-05-10T18:25:30;13.10;;;9.77;;
1887;SDS011;944;51.574;6.980;2023-05-10T18:27:57;16.57;;;11.43;;
1887;SDS011;944;51.574;6.980;2023-05-10T18:30:24;16.57;;;10.80;;
1887;SDS011;944;51.574;6.980;2023-05-10T18:36:33;16.30;;;10.90;;
1887;SDS011;944;51.574;6.980;2023-05-10T18:39:04;15.57;;;11.33;;
1887;SDS011;944;51.574;6.980;2023-05-10T18:41:37;16.80;;;10.80;;
1887;SDS011;944;51.574;6.980;2023-05-10T18:44:04;14.23;;;10.63;;
1887;SDS011;944;51.574;6.980;2023-05-10T18:50:14;18.30;;;11.40;;
1887;SDS011;944;51.574;6.980;2023-05-10T18:52:46;14.13;;;10.80;;
1887;SDS011;944;51.574;6.980;2023-05-10T18:55:14;13.30;;;9.97;;
1887;SDS011;944;51.574;6.980;2023-05-10T18:57:42;12.23;;;9.30;;
1887;SDS011;944;51.574;6.980;2023-05-10T19:00:10;15.13;;;10.10;;
1887;SDS011;944;51.574;6.980;2023-05-10T19:02:38;11.73;;;9.50;;
1887;SDS011;944;51.574;6.980;2023-05-10T19:05:06;14.47;;;10.10;;
1887;SDS011;944;51.574;6.980;2023-05-10T19:07:34;13.90;;;10.13;;
1887;SDS011;944;51.574;6.980;2023-05-10T19:10:02;15.20;;;10.63;;
1887;SDS011;944;51.574;6.980;2023-05-10T19:12:30;20.73;;;11.37;;
1887;SDS011;944;51.574;6.980;2023-05-10T19:14:57;18.87;;;13.03;;
1887;SDS011;944;51.574;6.980;2023-05-10T19:17:24;16.83;;;12.10;;
1887;SDS011;944;51.574;6.980;2023-05-10T19:19:53;18.53;;;12.47;;
1887;SDS011;944;51.574;6.980;2023-05-10T19:22:20;20.30;;;12.30;;
1887;SDS011;944;51.574;6.980;2023-05-10T19:24:47;20.10;;;13.63;;
1887;SDS011;944;51.574;6.980;2023-05-10T19:27:15;19.53;;;13.17;;
1887;SDS011;944;51.574;6.980;2023-05-10T19:29:42;16.37;;;13.10;;
1887;SDS011;944;51.574;6.980;2023-05-10T19:32:09;23.70;;;15.33;;
1887;SDS011;944;51.574;6.980;2023-05-10T19:34:37;20.53;;;12.90;;
1887;SDS011;944;51.574;6.980;2023-05-10T19:37:04;17.43;;;12.60;;
1887;SDS011;944;51.574;6.980;2023-05-10T19:42:38;18.57;;;13.60;;
1887;SDS011;944;51.574;6.980;2023-05-10T19:45:05;19.63;;;13.37;;
1887;SDS011;944;51.574;6.980;2023-05-10T19:47:34;22.83;;;15.00;;
1887;SDS011;944;51.574;6.980;2023-05-10T19:50:10;21.03;;;15.17;;
1887;SDS011;944;51.574;6.980;2023-05-10T19:56:29;20.87;;;13.77;;
1887;SDS011;944;51.574;6.980;2023-05-10T19:58:58;19.33;;;14.13;;
1887;SDS011;944;51.574;6.980;2023-05-10T20:01:27;20.63;;;14.40;;
1887;SDS011;944;51.574;6.980;2023-05-10T20:03:53;22.20;;;13.90;;
1887;SDS011;944;51.574;6.980;2023-05-10T20:09:30;20.33;;;14.83;;
1887;SDS011;944;51.574;6.980;2023-05-10T20:11:57;23.30;;;15.87;;
1887;SDS011;944;51.574;6.980;2023-05-10T20:14:25;22.37;;;15.90;;
1887;SDS011;944;51.574;6.980;2023-05-10T20:16:52;20.10;;;15.63;;
1887;SDS011;944;51.574;6.980;2023-05-10T20:19:19;24.53;;;15.37;;
1887;SDS011;944;51.574;6.980;2023-05-10T20:21:46;24.30;;;16.63;;
1887;SDS011;944;51.574;6.980;2023-05-10T20:26:45;25.23;;;17.20;;
1887;SDS011;944;51.574;6.980;2023-05-10T20:34:24;26.40;;;18.10;;
1887;SDS011;944;51.574;6.980;2023-05-10T20:36:51;25.80;;;18.43;;
1887;SDS011;944;51.574;6.980;2023-05-10T20:39:18;28.50;;;18.50;;
1887;SDS011;944;51.574;6.980;2023-05-10T20:41:45;30.73;;;19.60;;
1887;SDS011;944;51.574;6.980;2023-05-10T20:44:14;26.80;;;18.77;;
1887;SDS011;944;51.574;6.980;2023-05-10T20:49:18;30.03;;;19.67;;
1887;SDS011;944;51.574;6.980;2023-05-10T20:51:51;29.87;;;20.80;;
1887;SDS011;944;51.574;6.980;2023-05-10T20:54:18;30.60;;;20.40;;
1887;SDS011;944;51.574;6.980;2023-05-10T20:57:02;30.10;;;20.60;;
1887;SDS011;944;51.574;6.980;2023-05-10T20:59:29;31.13;;;20.47;;
1887;SDS011;944;51.574;6.980;2023-05-10T21:01:56;38.33;;;22.83;;
1887;SDS011;944;51.574;6.980;2023-05-10T21:04:23;30.57;;;21.40;;
1887;SDS011;944;51.574;6.980;2023-05-10T21:06:51;28.87;;;19.70;;
1887;SDS011;944;51.574;6.980;2023-05-10T21:09:20;31.70;;;22.40;;
1887;SDS011;944;51.574;6.980;2023-05-10T21:11:47;32.70;;;22.70;;
1887;SDS011;944;51.574;6.980;2023-05-10T21:14:14;36.57;;;24.70;;
1887;SDS011;944;51.574;6.980;2023-05-10T21:16:41;34.30;;;24.00;;
1887;SDS011;944;51.574;6.980;2023-05-10T21:19:08;34.17;;;23.20;;
1887;SDS011;944;51.574;6.980;2023-05-10T21:21:35;35.90;;;24.33;;
1887;SDS011;944;51.574;6.980;2023-05-10T21:24:03;34.60;;;24.37;;
1887;SDS011;944;51.574;6.980;2023-05-10T21:26:31;35.93;;;22.53;;
1887;SDS011;944;51.574;6.980;2023-05-10T21:28:58;32.80;;;22.83;;
1887;SDS011;944;51.574;6.980;2023-05-10T21:31:25;31.57;;;22.00;;
1887;SDS011;944;51.574;6.980;2023-05-10T21:33:52;29.37;;;21.03;;
1887;SDS011;944;51.574;6.980;2023-05-10T21:36:19;34.70;;;23.30;;
1887;SDS011;944;51.574;6.980;2023-05-10T21:38:45;32.43;;;21.60;;
1887;SDS011;944;51.574;6.980;2023-05-10T21:41:15;35.87;;;22.17;;
1887;SDS011;944;51.574;6.980;2023-05-10T21:43:42;37.37;;;24.47;;
1887;SDS011;944;51.574;6.980;2023-05-10T21:46:09;45.40;;;24.70;;
1887;SDS011;944;51.574;6.980;2023-05-10T21:48:38;34.77;;;23.33;;
1887;SDS011;944;51.574;6.980;2023-05-10T21:51:05;37.27;;;25.17;;
1887;SDS011;944;51.574;6.980;2023-05-10T21:53:32;35.17;;;25.40;;
1887;SDS011;944;51.574;6.980;2023-05-10T21:56:00;39.10;;;26.30;;
1887;SDS011;944;51.574;6.980;2023-05-10T21:58:28;43.10;;;28.03;;
1887;SDS011;944;51.574;6.980;2023-05-10T22:00:55;39.47;;;26.63;;
1887;SDS011;944;51.574;6.980;2023-05-10T22:03:22;39.20;;;26.07;;
1887;SDS011;944;51.574;6.980;2023-05-10T22:05:50;53.67;;;26.90;;
1887;SDS011;944;51.574;6.980;2023-05-10T22:08:17;39.70;;;26.40;;
1887;SDS011;944;51.574;6.980;2023-05-10T22:10:44;49.70;;;26.60;;
1887;SDS011;944;51.574;6.980;2023-05-10T22:13:10;39.37;;;25.70;;
1887;SDS011;944;51.574;6.980;2023-05-10T22:15:39;41.23;;;27.63;;
1887;SDS011;944;51.574;6.980;2023-05-10T22:18:06;42.20;;;29.80;;
1887;SDS011;944;51.574;6.980;2023-05-10T22:20:33;48.20;;;29.70;;
1887;SDS011;944;51.574;6.980;2023-05-10T22:22:59;46.63;;;30.83;;
1887;SDS011;944;51.574;6.980;2023-05-10T22:25:27;46.90;;;29.50;;
1887;SDS011;944;51.574;6.980;2023-05-10T22:27:54;49.43;;;28.53;;
1887;SDS011;944;51.574;6.980;2023-05-10T22:30:21;49.73;;;30.37;;
1887;SDS011;944;51.574;6.980;2023-05-10T22:32:50;47.50;;;28.60;;
1887;SDS011;944;51.574;6.980;2023-05-10T22:35:17;42.83;;;28.40;;
1887;SDS011;944;51.574;6.980;2023-05-10T22:37:44;43.20;;;27.70;;
1887;SDS011;944;51.574;6.980;2023-05-10T22:40:11;42.83;;;29.20;;
1887;SDS011;944;51.574;6.980;2023-05-10T22:42:38;45.03;;;28.30;;
1887;SDS011;944;51.574;6.980;2023-05-10T22:45:06;44.40;;;28.40;;
1887;SDS011;944;51.574;6.980;2023-05-10T22:47:34;46.03;;;28.53;;
1887;SDS011;944;51.574;6.980;2023-05-10T22:50:03;42.90;;;27.77;;
1887;SDS011;944;51.574;6.980;2023-05-10T22:52:31;43.33;;;29.13;;
1887;SDS011;944;51.574;6.980;2023-05-10T22:55:02;41.27;;;27.97;;
1887;SDS011;944;51.574;6.980;2023-05-10T22:57:31;48.37;;;29.00;;
1887;SDS011;944;51.574;6.980;2023-05-10T22:59:58;54.07;;;30.77;;
1887;SDS011;944;51.574;6.980;2023-05-10T23:02:25;48.43;;;30.60;;
1887;SDS011;944;51.574;6.980;2023-05-10T23:04:52;43.60;;;26.83;;
